Oisterwijk, Netherlands
Current Conditions -  °F | °C
As of 9:25 PM on Monday 26 Jan 2015 (Local Time) from EHGR Reporting Station
Broken Clouds Broken Clouds  
Wind Chill: 35°   Ceiling: 4100
Heat Index: 41°   Visibility: 6mi
Dew Point: 37°   Wind: 10mph
Humidity: 87%   Direction: 310°NW
Pressure: 30.15"   Gusts: NA
Location:  51.58°N, 5.19°E
Report Text: EHGR 262025Z AUTO 31009KT 9999 FEW035 BKN041 BKN045 05/03 Q1021 REDZ BLU 31013KT 9999 SCT025 BKN040 TEMPO 7000 -SHRA SCT021CB
Loading
Personal Weather Stations






























Interactive Weather Map New forecast layout! Learn more

10-Day Weather Forecast

Advertisements
Track Severe Weather on mobile